sensor_id;sensor_type;location;lat;lon;timestamp;pressure;altitude;pressure_sealevel;temperature;humidity
50356;BME280;36264;51.296;-0.602;2023-02-16T00:01:34;102044.13;;;9.48;100.00
50356;BME280;36264;51.296;-0.602;2023-02-16T00:04:00;102053.66;;;9.45;100.00
50356;BME280;36264;51.296;-0.602;2023-02-16T00:06:27;102064.03;;;9.48;100.00
50356;BME280;36264;51.296;-0.602;2023-02-16T00:08:54;102054.50;;;9.45;100.00
50356;BME280;36264;51.296;-0.602;2023-02-16T00:11:22;102059.75;;;9.39;100.00
50356;BME280;36264;51.296;-0.602;2023-02-16T00:14:12;102046.81;;;9.37;100.00
50356;BME280;36264;51.296;-0.602;2023-02-16T00:16:38;102046.81;;;9.37;100.00
50356;BME280;36264;51.296;-0.602;2023-02-16T00:21:38;102051.09;;;9.37;100.00
50356;BME280;36264;51.296;-0.602;2023-02-16T00:24:04;102039.88;;;9.38;100.00
50356;BME280;36264;51.296;-0.602;2023-02-16T00:26:30;102043.31;;;9.38;100.00
50356;BME280;36264;51.296;-0.602;2023-02-16T00:28:57;102030.41;;;9.29;100.00
50356;BME280;36264;51.296;-0.602;2023-02-16T00:31:24;102024.38;;;9.29;100.00
50356;BME280;36264;51.296;-0.602;2023-02-16T00:33:52;102022.69;;;9.20;100.00
50356;BME280;36264;51.296;-0.602;2023-02-16T00:36:17;102019.25;;;9.12;100.00
50356;BME280;36264;51.296;-0.602;2023-02-16T00:38:43;102023.56;;;9.13;100.00
50356;BME280;36264;51.296;-0.602;2023-02-16T00:41:22;102021.81;;;9.18;100.00
50356;BME280;36264;51.296;-0.602;2023-02-16T00:44:24;102018.38;;;9.17;100.00
50356;BME280;36264;51.296;-0.602;2023-02-16T00:46:51;102015.78;;;9.16;100.00
50356;BME280;36264;51.296;-0.602;2023-02-16T00:49:18;102018.34;;;9.22;100.00
50356;BME280;36264;51.296;-0.602;2023-02-16T00:51:44;102015.78;;;9.20;100.00
50356;BME280;36264;51.296;-0.602;2023-02-16T00:54:10;102016.63;;;9.21;100.00
50356;BME280;36264;51.296;-0.602;2023-02-16T00:56:35;102008.00;;;9.20;100.00
50356;BME280;36264;51.296;-0.602;2023-02-16T00:59:02;102005.38;;;9.22;100.00
50356;BME280;36264;51.296;-0.602;2023-02-16T01:01:31;102005.38;;;9.23;100.00
50356;BME280;36264;51.296;-0.602;2023-02-16T01:04:02;102007.94;;;9.30;100.00
50356;BME280;36264;51.296;-0.602;2023-02-16T01:06:28;102006.22;;;9.27;100.00
50356;BME280;36264;51.296;-0.602;2023-02-16T01:09:15;102010.53;;;9.31;100.00
50356;BME280;36264;51.296;-0.602;2023-02-16T01:12:01;102007.91;;;9.36;100.00
50356;BME280;36264;51.296;-0.602;2023-02-16T01:14:30;102006.16;;;9.36;100.00
50356;BME280;36264;51.296;-0.602;2023-02-16T01:16:56;102000.16;;;9.34;100.00
50356;BME280;36264;51.296;-0.602;2023-02-16T01:19:21;102011.31;;;9.42;100.00
50356;BME280;36264;51.296;-0.602;2023-02-16T01:21:46;102009.56;;;9.46;100.00
50356;BME280;36264;51.296;-0.602;2023-02-16T01:24:12;102012.16;;;9.49;100.00
50356;BME280;36264;51.296;-0.602;2023-02-16T01:26:40;101998.31;;;9.52;100.00
50356;BME280;36264;51.296;-0.602;2023-02-16T01:29:09;102006.06;;;9.55;100.00
50356;BME280;36264;51.296;-0.602;2023-02-16T01:31:37;101999.97;;;9.59;100.00
50356;BME280;36264;51.296;-0.602;2023-02-16T01:34:02;102009.47;;;9.61;100.00
50356;BME280;36264;51.296;-0.602;2023-02-16T01:36:34;102011.13;;;9.73;100.00
50356;BME280;36264;51.296;-0.602;2023-02-16T01:39:01;102010.28;;;9.71;100.00
50356;BME280;36264;51.296;-0.602;2023-02-16T01:44:21;102004.13;;;9.83;100.00
50356;BME280;36264;51.296;-0.602;2023-02-16T01:46:59;102004.06;;;9.89;100.00
50356;BME280;36264;51.296;-0.602;2023-02-16T01:49:26;102006.69;;;9.88;100.00
50356;BME280;36264;51.296;-0.602;2023-02-16T01:54:58;102003.13;;;10.01;100.00
50356;BME280;36264;51.296;-0.602;2023-02-16T01:57:40;101999.66;;;10.01;100.00
50356;BME280;36264;51.296;-0.602;2023-02-16T02:02:42;101992.69;;;10.06;100.00
50356;BME280;36264;51.296;-0.602;2023-02-16T02:05:19;101985.75;;;10.06;100.00
50356;BME280;36264;51.296;-0.602;2023-02-16T02:16:04;101966.03;;;9.88;100.00
50356;BME280;36264;51.296;-0.602;2023-02-16T02:18:30;101974.63;;;9.95;100.00
50356;BME280;36264;51.296;-0.602;2023-02-16T02:26:57;101976.41;;;9.88;100.00
50356;BME280;36264;51.296;-0.602;2023-02-16T02:40:58;101966.97;;;9.76;100.00
50356;BME280;36264;51.296;-0.602;2023-02-16T02:43:41;101966.13;;;9.77;100.00
50356;BME280;36264;51.296;-0.602;2023-02-16T02:46:32;101957.44;;;9.80;100.00
50356;BME280;36264;51.296;-0.602;2023-02-16T02:48:58;101959.22;;;9.72;100.00
50356;BME280;36264;51.296;-0.602;2023-02-16T02:51:23;101952.31;;;9.74;100.00
50356;BME280;36264;51.296;-0.602;2023-02-16T02:54:14;101951.38;;;9.79;100.00
50356;BME280;36264;51.296;-0.602;2023-02-16T03:00:01;101935.00;;;9.74;100.00
50356;BME280;36264;51.296;-0.602;2023-02-16T03:02:50;101923.81;;;9.71;100.00
50356;BME280;36264;51.296;-0.602;2023-02-16T03:05:18;101933.28;;;9.72;100.00
50356;BME280;36264;51.296;-0.602;2023-02-16T03:07:47;101926.41;;;9.68;100.00
50356;BME280;36264;51.296;-0.602;2023-02-16T03:10:23;101909.94;;;9.73;100.00
50356;BME280;36264;51.296;-0.602;2023-02-16T03:13:20;101901.34;;;9.68;100.00
50356;BME280;36264;51.296;-0.602;2023-02-16T03:15:48;101886.66;;;9.66;100.00
50356;BME280;36264;51.296;-0.602;2023-02-16T03:18:21;101890.16;;;9.61;100.00
50356;BME280;36264;51.296;-0.602;2023-02-16T03:21:07;101894.44;;;9.63;100.00
50356;BME280;36264;51.296;-0.602;2023-02-16T03:23:53;101892.75;;;9.60;100.00
50356;BME280;36264;51.296;-0.602;2023-02-16T03:26:38;101878.97;;;9.55;100.00
50356;BME280;36264;51.296;-0.602;2023-02-16T03:29:23;101883.28;;;9.56;100.00
50356;BME280;36264;51.296;-0.602;2023-02-16T03:31:51;101878.09;;;9.54;100.00
50356;BME280;36264;51.296;-0.602;2023-02-16T03:34:19;101886.78;;;9.50;100.00
50356;BME280;36264;51.296;-0.602;2023-02-16T03:36:48;101880.72;;;9.50;100.00
50356;BME280;36264;51.296;-0.602;2023-02-16T03:39:15;101884.25;;;9.42;100.00
50356;BME280;36264;51.296;-0.602;2023-02-16T03:41:49;101890.31;;;9.40;100.00
50356;BME280;36264;51.296;-0.602;2023-02-16T03:44:15;101890.34;;;9.38;100.00
50356;BME280;36264;51.296;-0.602;2023-02-16T03:46:41;101892.06;;;9.39;100.00
50356;BME280;36264;51.296;-0.602;2023-02-16T03:49:06;101896.41;;;9.39;100.00
50356;BME280;36264;51.296;-0.602;2023-02-16T03:51:32;101905.91;;;9.37;100.00
50356;BME280;36264;51.296;-0.602;2023-02-16T03:53:57;101901.59;;;9.37;100.00
50356;BME280;36264;51.296;-0.602;2023-02-16T03:56:23;101909.31;;;9.40;100.00
50356;BME280;36264;51.296;-0.602;2023-02-16T03:58:48;101907.63;;;9.38;100.00
50356;BME280;36264;51.296;-0.602;2023-02-16T04:01:13;101914.56;;;9.39;100.00
50356;BME280;36264;51.296;-0.602;2023-02-16T04:03:39;101911.97;;;9.37;100.00
50356;BME280;36264;51.296;-0.602;2023-02-16T04:06:04;101916.28;;;9.37;100.00
50356;BME280;36264;51.296;-0.602;2023-02-16T04:08:30;101923.22;;;9.35;100.00
50356;BME280;36264;51.296;-0.602;2023-02-16T04:10:55;101917.22;;;9.28;100.00
50356;BME280;36264;51.296;-0.602;2023-02-16T04:13:22;101923.25;;;9.30;100.00
50356;BME280;36264;51.296;-0.602;2023-02-16T04:15:48;101926.69;;;9.28;100.00
50356;BME280;36264;51.296;-0.602;2023-02-16T04:18:14;101920.66;;;9.30;100.00
50356;BME280;36264;51.296;-0.602;2023-02-16T04:20:39;101918.91;;;9.32;100.00
50356;BME280;36264;51.296;-0.602;2023-02-16T04:23:05;101919.75;;;9.34;100.00
50356;BME280;36264;51.296;-0.602;2023-02-16T04:25:30;101918.84;;;9.38;100.00
50356;BME280;36264;51.296;-0.602;2023-02-16T04:27:56;101910.22;;;9.39;100.00
50356;BME280;36264;51.296;-0.602;2023-02-16T04:30:24;101904.09;;;9.45;100.00
50356;BME280;36264;51.296;-0.602;2023-02-16T04:32:50;101897.22;;;9.46;100.00
50356;BME280;36264;51.296;-0.602;2023-02-16T04:35:16;101904.97;;;9.49;100.00
50356;BME280;36264;51.296;-0.602;2023-02-16T04:37:42;101897.22;;;9.46;100.00
50356;BME280;36264;51.296;-0.602;2023-02-16T04:40:09;101886.81;;;9.47;100.00
50356;BME280;36264;51.296;-0.602;2023-02-16T04:42:38;101892.06;;;9.41;100.00
50356;BME280;36264;51.296;-0.602;2023-02-16T04:45:04;101878.22;;;9.40;100.00
50356;BME280;36264;51.296;-0.602;2023-02-16T04:47:29;101887.72;;;9.41;100.00
50356;BME280;36264;51.296;-0.602;2023-02-16T04:49:55;101890.28;;;9.43;100.00
50356;BME280;36264;51.296;-0.602;2023-02-16T04:52:20;101885.09;;;9.45;100.00
50356;BME280;36264;51.296;-0.602;2023-02-16T04:54:45;101885.97;;;9.40;100.00
50356;BME280;36264;51.296;-0.602;2023-02-16T04:57:11;101886.88;;;9.41;100.00
50356;BME280;36264;51.296;-0.602;2023-02-16T04:59:37;101890.28;;;9.45;100.00
50356;BME280;36264;51.296;-0.602;2023-02-16T05:02:02;101879.94;;;9.43;100.00
50356;BME280;36264;51.296;-0.602;2023-02-16T05:04:28;101886.84;;;9.46;100.00
50356;BME280;36264;51.296;-0.602;2023-02-16T05:06:54;101884.22;;;9.49;100.00
50356;BME280;36264;51.296;-0.602;2023-02-16T05:09:19;101879.88;;;9.51;100.00
50356;BME280;36264;51.296;-0.602;2023-02-16T05:11:45;101885.91;;;9.50;100.00
50356;BME280;36264;51.296;-0.602;2023-02-16T05:14:31;101871.19;;;9.55;100.00
50356;BME280;36264;51.296;-0.602;2023-02-16T05:19:44;101863.44;;;9.53;100.00
50356;BME280;36264;51.296;-0.602;2023-02-16T05:22:11;101862.53;;;9.54;100.00
50356;BME280;36264;51.296;-0.602;2023-02-16T05:24:37;101854.78;;;9.51;100.00
50356;BME280;36264;51.296;-0.602;2023-02-16T05:27:05;101849.59;;;9.53;100.00
50356;BME280;36264;51.296;-0.602;2023-02-16T05:29:31;101855.69;;;9.50;100.00
50356;BME280;36264;51.296;-0.602;2023-02-16T05:31:56;101857.38;;;9.53;100.00
50356;BME280;36264;51.296;-0.602;2023-02-16T05:34:22;101867.72;;;9.54;100.00
50356;BME280;36264;51.296;-0.602;2023-02-16T05:36:47;101866.88;;;9.54;100.00
50356;BME280;36264;51.296;-0.602;2023-02-16T05:39:13;101872.94;;;9.51;100.00
50356;BME280;36264;51.296;-0.602;2023-02-16T05:41:38;101874.69;;;9.51;100.00
50356;BME280;36264;51.296;-0.602;2023-02-16T05:44:06;101869.47;;;9.55;100.00
50356;BME280;36264;51.296;-0.602;2023-02-16T05:46:34;101871.22;;;9.52;100.00
50356;BME280;36264;51.296;-0.602;2023-02-16T05:49:00;101866.88;;;9.52;100.00
50356;BME280;36264;51.296;-0.602;2023-02-16T05:51:26;101885.03;;;9.52;100.00
50356;BME280;36264;51.296;-0.602;2023-02-16T05:53:51;101868.59;;;9.55;100.00
50356;BME280;36264;51.296;-0.602;2023-02-16T05:56:18;101866.81;;;9.60;100.00
50356;BME280;36264;51.296;-0.602;2023-02-16T05:58:43;101866.78;;;9.63;100.00
50356;BME280;36264;51.296;-0.602;2023-02-16T06:01:09;101855.50;;;9.66;100.00
50356;BME280;36264;51.296;-0.602;2023-02-16T06:03:35;101852.88;;;9.69;100.00
50356;BME280;36264;51.296;-0.602;2023-02-16T06:06:01;101857.22;;;9.70;100.00
50356;BME280;36264;51.296;-0.602;2023-02-16T06:08:28;101867.56;;;9.74;100.00
50356;BME280;36264;51.296;-0.602;2023-02-16T06:10:54;101861.59;;;9.66;100.00
50356;BME280;36264;51.296;-0.602;2023-02-16T06:13:20;101866.72;;;9.72;100.00
50356;BME280;36264;51.296;-0.602;2023-02-16T06:15:46;101843.34;;;9.74;100.00
50356;BME280;36264;51.296;-0.602;2023-02-16T06:18:12;101842.44;;;9.76;100.00
50356;BME280;36264;51.296;-0.602;2023-02-16T06:20:39;101842.41;;;9.79;100.00
50356;BME280;36264;51.296;-0.602;2023-02-16T06:23:06;101839.84;;;9.78;100.00
50356;BME280;36264;51.296;-0.602;2023-02-16T06:25:31;101838.13;;;9.77;100.00
50356;BME280;36264;51.296;-0.602;2023-02-16T06:27:57;101848.53;;;9.75;100.00
50356;BME280;36264;51.296;-0.602;2023-02-16T06:30:23;101850.22;;;9.78;100.00
50356;BME280;36264;51.296;-0.602;2023-02-16T06:32:48;101850.22;;;9.76;100.00
50356;BME280;36264;51.296;-0.602;2023-02-16T06:35:14;101842.47;;;9.73;100.00
50356;BME280;36264;51.296;-0.602;2023-02-16T06:37:39;101844.22;;;9.73;100.00
50356;BME280;36264;51.296;-0.602;2023-02-16T06:40:05;101839.88;;;9.75;100.00
50356;BME280;36264;51.296;-0.602;2023-02-16T06:42:31;101845.94;;;9.75;100.00
50356;BME280;36264;51.296;-0.602;2023-02-16T06:44:56;101831.22;;;9.76;100.00
50356;BME280;36264;51.296;-0.602;2023-02-16T06:47:21;101841.56;;;9.79;100.00
50356;BME280;36264;51.296;-0.602;2023-02-16T06:49:47;101838.16;;;9.75;100.00
50356;BME280;36264;51.296;-0.602;2023-02-16T06:52:12;101836.44;;;9.71;100.00
50356;BME280;36264;51.296;-0.602;2023-02-16T06:54:37;101831.25;;;9.73;100.00
50356;BME280;36264;51.296;-0.602;2023-02-16T06:57:03;101835.59;;;9.71;100.00
50356;BME280;36264;51.296;-0.602;2023-02-16T06:59:28;101834.66;;;9.75;100.00
50356;BME280;36264;51.296;-0.602;2023-02-16T07:01:53;101830.34;;;9.77;100.00
50356;BME280;36264;51.296;-0.602;2023-02-16T07:04:19;101815.66;;;9.74;100.00
50356;BME280;36264;51.296;-0.602;2023-02-16T07:06:44;101818.22;;;9.77;100.00
50356;BME280;36264;51.296;-0.602;2023-02-16T07:09:09;101818.25;;;9.76;100.00
50356;BME280;36264;51.296;-0.602;2023-02-16T07:11:35;101819.97;;;9.77;100.00
50356;BME280;36264;51.296;-0.602;2023-02-16T07:14:00;101825.97;;;9.82;100.00
50356;BME280;36264;51.296;-0.602;2023-02-16T07:16:26;101824.22;;;9.81;100.00
50356;BME280;36264;51.296;-0.602;2023-02-16T07:18:51;101834.63;;;9.81;100.00
50356;BME280;36264;51.296;-0.602;2023-02-16T07:21:16;101813.81;;;9.84;100.00
50356;BME280;36264;51.296;-0.602;2023-02-16T07:23:42;101813.81;;;9.84;100.00
50356;BME280;36264;51.296;-0.602;2023-02-16T07:26:07;101812.06;;;9.86;100.00
50356;BME280;36264;51.296;-0.602;2023-02-16T07:28:33;101809.47;;;9.85;100.00
50356;BME280;36264;51.296;-0.602;2023-02-16T07:31:08;101811.13;;;9.93;100.00
50356;BME280;36264;51.296;-0.602;2023-02-16T07:33:34;101806.81;;;9.92;100.00
50356;BME280;36264;51.296;-0.602;2023-02-16T07:35:59;101806.78;;;9.95;100.00
50356;BME280;36264;51.296;-0.602;2023-02-16T07:38:25;101803.28;;;10.00;100.00
50356;BME280;36264;51.296;-0.602;2023-02-16T07:40:50;101812.78;;;9.99;100.00
50356;BME280;36264;51.296;-0.602;2023-02-16T07:43:15;101812.75;;;10.01;100.00
50356;BME280;36264;51.296;-0.602;2023-02-16T07:45:42;101820.53;;;10.04;100.00
50356;BME280;36264;51.296;-0.602;2023-02-16T07:48:07;101813.63;;;10.04;100.00
50356;BME280;36264;51.296;-0.602;2023-02-16T07:50:35;101829.13;;;10.10;100.00
50356;BME280;36264;51.296;-0.602;2023-02-16T07:53:01;101827.31;;;10.15;100.00
50356;BME280;36264;51.296;-0.602;2023-02-16T07:55:27;101826.47;;;10.15;100.00
50356;BME280;36264;51.296;-0.602;2023-02-16T07:57:52;101829.91;;;10.17;100.00
50356;BME280;36264;51.296;-0.602;2023-02-16T08:00:21;101833.31;;;10.19;100.00
50356;BME280;36264;51.296;-0.602;2023-02-16T08:02:46;101830.72;;;10.19;100.00
50356;BME280;36264;51.296;-0.602;2023-02-16T08:05:12;101841.06;;;10.24;100.00
50356;BME280;36264;51.296;-0.602;2023-02-16T08:07:37;101845.34;;;10.28;100.00
50356;BME280;36264;51.296;-0.602;2023-02-16T08:10:04;101840.97;;;10.35;100.00
50356;BME280;36264;51.296;-0.602;2023-02-16T08:12:30;101847.00;;;10.37;100.00
50356;BME280;36264;51.296;-0.602;2023-02-16T08:14:56;101840.00;;;10.40;100.00
50356;BME280;36264;51.296;-0.602;2023-02-16T08:17:21;101841.72;;;10.43;100.00
50356;BME280;36264;51.296;-0.602;2023-02-16T08:19:46;101838.25;;;10.44;100.00
50356;BME280;36264;51.296;-0.602;2023-02-16T08:22:12;101833.91;;;10.44;100.00
50356;BME280;36264;51.296;-0.602;2023-02-16T08:24:37;101833.03;;;10.45;100.00
50356;BME280;36264;51.296;-0.602;2023-02-16T08:27:04;101824.34;;;10.48;100.00
50356;BME280;36264;51.296;-0.602;2023-02-16T08:29:30;101837.31;;;10.49;100.00
50356;BME280;36264;51.296;-0.602;2023-02-16T08:31:56;101822.63;;;10.48;100.00
50356;BME280;36264;51.296;-0.602;2023-02-16T08:34:23;101820.81;;;10.52;100.00
50356;BME280;36264;51.296;-0.602;2023-02-16T08:36:54;101829.47;;;10.52;100.00
50356;BME280;36264;51.296;-0.602;2023-02-16T08:39:25;101823.44;;;10.52;100.00
50356;BME280;36264;51.296;-0.602;2023-02-16T08:41:52;101821.66;;;10.54;100.00
50356;BME280;36264;51.296;-0.602;2023-02-16T08:44:19;101828.59;;;10.55;100.00
50356;BME280;36264;51.296;-0.602;2023-02-16T08:46:47;101819.88;;;10.56;100.00
50356;BME280;36264;51.296;-0.602;2023-02-16T08:49:15;101828.56;;;10.57;100.00
50356;BME280;36264;51.296;-0.602;2023-02-16T08:51:44;101821.56;;;10.60;100.00
50356;BME280;36264;51.296;-0.602;2023-02-16T08:54:24;101824.13;;;10.65;100.00
50356;BME280;36264;51.296;-0.602;2023-02-16T08:56:51;101824.13;;;10.63;100.00
50356;BME280;36264;51.296;-0.602;2023-02-16T08:59:18;101814.56;;;10.65;100.00
50356;BME280;36264;51.296;-0.602;2023-02-16T09:01:44;101810.22;;;10.69;100.00
50356;BME280;36264;51.296;-0.602;2023-02-16T09:04:10;101819.63;;;10.75;100.00
50356;BME280;36264;51.296;-0.602;2023-02-16T09:06:39;101821.25;;;10.85;100.00
50356;BME280;36264;51.296;-0.602;2023-02-16T09:09:05;101821.13;;;10.91;100.00
50356;BME280;36264;51.296;-0.602;2023-02-16T09:11:31;101826.22;;;10.97;100.00
50356;BME280;36264;51.296;-0.602;2023-02-16T09:13:56;101827.09;;;10.98;100.00
50356;BME280;36264;51.296;-0.602;2023-02-16T09:16:23;101829.59;;;11.05;100.00
50356;BME280;36264;51.296;-0.602;2023-02-16T09:18:49;101823.50;;;11.05;100.00
50356;BME280;36264;51.296;-0.602;2023-02-16T09:21:20;101822.53;;;11.12;100.00
50356;BME280;36264;51.296;-0.602;2023-02-16T09:23:47;101824.38;;;11.07;100.00
50356;BME280;36264;51.296;-0.602;2023-02-16T09:26:17;101825.09;;;11.15;100.00
50356;BME280;36264;51.296;-0.602;2023-02-16T09:28:43;101834.63;;;11.15;100.00
50356;BME280;36264;51.296;-0.602;2023-02-16T09:31:16;101827.69;;;11.15;100.00
50356;BME280;36264;51.296;-0.602;2023-02-16T09:33:47;101829.38;;;11.18;100.00
50356;BME280;36264;51.296;-0.602;2023-02-16T09:36:13;101818.91;;;11.21;100.00
50356;BME280;36264;51.296;-0.602;2023-02-16T09:38:39;101823.19;;;11.25;100.00
50356;BME280;36264;51.296;-0.602;2023-02-16T09:41:25;101815.28;;;11.31;100.00
50356;BME280;36264;51.296;-0.602;2023-02-16T09:46:42;101809.16;;;11.34;100.00
50356;BME280;36264;51.296;-0.602;2023-02-16T09:49:26;101806.41;;;11.43;100.00
50356;BME280;36264;51.296;-0.602;2023-02-16T09:52:17;101808.94;;;11.48;100.00
50356;BME280;36264;51.296;-0.602;2023-02-16T09:54:49;101797.81;;;11.39;100.00
50356;BME280;36264;51.296;-0.602;2023-02-16T09:57:18;101808.06;;;11.49;100.00
50356;BME280;36264;51.296;-0.602;2023-02-16T10:00:06;101808.78;;;11.57;100.00
50356;BME280;36264;51.296;-0.602;2023-02-16T10:10:25;101809.47;;;11.65;100.00
50356;BME280;36264;51.296;-0.602;2023-02-16T10:12:59;101815.47;;;11.69;100.00
50356;BME280;36264;51.296;-0.602;2023-02-16T10:15:30;101815.56;;;11.66;100.00
50356;BME280;36264;51.296;-0.602;2023-02-16T10:18:02;101818.09;;;11.67;100.00
50356;BME280;36264;51.296;-0.602;2023-02-16T10:20:40;101807.59;;;11.73;100.00
50356;BME280;36264;51.296;-0.602;2023-02-16T10:26:13;101814.41;;;11.81;100.00
50356;BME280;36264;51.296;-0.602;2023-02-16T10:31:35;101818.59;;;11.88;100.00
50356;BME280;36264;51.296;-0.602;2023-02-16T10:37:24;101821.06;;;11.97;100.00
50356;BME280;36264;51.296;-0.602;2023-02-16T10:40:06;101815.84;;;11.97;100.00
50356;BME280;36264;51.296;-0.602;2023-02-16T10:45:34;101834.09;;;11.95;100.00
50356;BME280;36264;51.296;-0.602;2023-02-16T10:48:01;101831.53;;;11.94;100.00
50356;BME280;36264;51.296;-0.602;2023-02-16T10:50:38;101838.22;;;12.07;100.00
50356;BME280;36264;51.296;-0.602;2023-02-16T10:53:15;101839.00;;;12.12;100.00
50356;BME280;36264;51.296;-0.602;2023-02-16T10:55:42;101839.97;;;12.05;100.00
50356;BME280;36264;51.296;-0.602;2023-02-16T10:58:19;101847.72;;;12.10;100.00
50356;BME280;36264;51.296;-0.602;2023-02-16T11:01:26;101843.38;;;12.10;100.00
50356;BME280;36264;51.296;-0.602;2023-02-16T11:03:49;101856.47;;;12.07;100.00
50356;BME280;36264;51.296;-0.602;2023-02-16T11:06:19;101860.78;;;12.07;100.00
50356;BME280;36264;51.296;-0.602;2023-02-16T11:08:52;101854.59;;;12.14;100.00
50356;BME280;36264;51.296;-0.602;2023-02-16T11:11:20;101836.47;;;12.08;100.00
50356;BME280;36264;51.296;-0.602;2023-02-16T11:13:55;101845.00;;;12.14;100.00
50356;BME280;36264;51.296;-0.602;2023-02-16T11:16:22;101831.88;;;12.21;100.00
50356;BME280;36264;51.296;-0.602;2023-02-16T11:19:05;101831.72;;;12.28;100.00
50356;BME280;36264;51.296;-0.602;2023-02-16T11:21:46;101832.59;;;12.27;100.00
50356;BME280;36264;51.296;-0.602;2023-02-16T11:24:23;101826.38;;;12.35;100.00
50356;BME280;36264;51.296;-0.602;2023-02-16T11:27:00;101824.56;;;12.38;100.00
50356;BME280;36264;51.296;-0.602;2023-02-16T11:29:27;101829.75;;;12.40;100.00
50356;BME280;36264;51.296;-0.602;2023-02-16T11:31:54;101808.09;;;12.38;100.00
50356;BME280;36264;51.296;-0.602;2023-02-16T11:36:48;101815.72;;;12.45;100.00
50356;BME280;36264;51.296;-0.602;2023-02-16T11:41:55;101815.53;;;12.55;100.00
50356;BME280;36264;51.296;-0.602;2023-02-16T11:44:25;101817.94;;;12.62;100.00
50356;BME280;36264;51.296;-0.602;2023-02-16T11:46:52;101804.03;;;12.63;100.00
50356;BME280;36264;51.296;-0.602;2023-02-16T11:49:28;101817.66;;;12.75;100.00
50356;BME280;36264;51.296;-0.602;2023-02-16T11:51:54;101816.72;;;12.79;100.00
50356;BME280;36264;51.296;-0.602;2023-02-16T11:54:20;101813.94;;;12.86;100.00
50356;BME280;36264;51.296;-0.602;2023-02-16T11:57:05;101812.03;;;12.93;100.00
50356;BME280;36264;51.296;-0.602;2023-02-16T11:59:37;101817.28;;;12.92;100.00
50356;BME280;36264;51.296;-0.602;2023-02-16T12:19:10;101776.81;;;13.11;100.00
50356;BME280;36264;51.296;-0.602;2023-02-16T12:21:44;101776.78;;;13.13;100.00
50356;BME280;36264;51.296;-0.602;2023-02-16T12:40:49;101761.97;;;13.15;100.00
50356;BME280;36264;51.296;-0.602;2023-02-16T12:43:47;101771.34;;;13.22;100.00
50356;BME280;36264;51.296;-0.602;2023-02-16T12:46:25;101766.88;;;13.26;100.00
50356;BME280;36264;51.296;-0.602;2023-02-16T12:48:57;101763.50;;;13.22;100.00
50356;BME280;36264;51.296;-0.602;2023-02-16T12:51:32;101754.59;;;13.31;100.00
50356;BME280;36264;51.296;-0.602;2023-02-16T12:54:06;101756.09;;;13.41;100.00
50356;BME280;36264;51.296;-0.602;2023-02-16T12:56:41;101754.03;;;13.52;100.00
50356;BME280;36264;51.296;-0.602;2023-02-16T12:59:43;101744.31;;;13.57;100.00
50356;BME280;36264;51.296;-0.602;2023-02-16T13:02:36;101738.13;;;13.62;100.00
50356;BME280;36264;51.296;-0.602;2023-02-16T13:05:08;101732.19;;;13.56;100.00
50356;BME280;36264;51.296;-0.602;2023-02-16T13:07:38;101728.75;;;13.54;100.00
50356;BME280;36264;51.296;-0.602;2023-02-16T13:10:16;101731.44;;;13.53;100.00
50356;BME280;36264;51.296;-0.602;2023-02-16T13:12:48;101727.13;;;13.50;100.00
50356;BME280;36264;51.296;-0.602;2023-02-16T13:15:23;101727.06;;;13.53;100.00
50356;BME280;36264;51.296;-0.602;2023-02-16T13:17:54;101729.81;;;13.47;100.00
50356;BME280;36264;51.296;-0.602;2023-02-16T13:20:21;101735.78;;;13.52;100.00
50356;BME280;36264;51.296;-0.602;2023-02-16T13:23:15;101728.66;;;13.57;100.00
50356;BME280;36264;51.296;-0.602;2023-02-16T13:29:05;101731.28;;;13.57;100.00
50356;BME280;36264;51.296;-0.602;2023-02-16T13:31:56;101735.69;;;13.55;100.00
50356;BME280;36264;51.296;-0.602;2023-02-16T13:34:42;101745.16;;;13.59;100.00
50356;BME280;36264;51.296;-0.602;2023-02-16T13:39:50;101740.88;;;13.57;100.00
50356;BME280;36264;51.296;-0.602;2023-02-16T13:45:29;101739.94;;;13.59;100.00
50356;BME280;36264;51.296;-0.602;2023-02-16T13:47:57;101746.16;;;13.54;100.00
50356;BME280;36264;51.296;-0.602;2023-02-16T13:50:28;101742.63;;;13.56;100.00
50356;BME280;36264;51.296;-0.602;2023-02-16T13:52:57;101749.84;;;13.47;100.00
50356;BME280;36264;51.296;-0.602;2023-02-16T13:55:36;101753.41;;;13.44;100.00
50356;BME280;36264;51.296;-0.602;2023-02-16T14:00:37;101741.50;;;13.34;100.00
50356;BME280;36264;51.296;-0.602;2023-02-16T14:03:08;101744.88;;;13.37;100.00
50356;BME280;36264;51.296;-0.602;2023-02-16T14:05:40;101733.56;;;13.37;100.00
50356;BME280;36264;51.296;-0.602;2023-02-16T14:15:54;101730.13;;;13.36;100.00
50356;BME280;36264;51.296;-0.602;2023-02-16T14:18:32;101730.84;;;13.41;100.00
50356;BME280;36264;51.296;-0.602;2023-02-16T14:21:00;101729.78;;;13.49;100.00
50356;BME280;36264;51.296;-0.602;2023-02-16T14:23:28;101726.94;;;13.58;100.00
50356;BME280;36264;51.296;-0.602;2023-02-16T14:26:08;101734.53;;;13.66;100.00
50356;BME280;36264;51.296;-0.602;2023-02-16T14:31:11;101719.50;;;13.74;100.00
50356;BME280;36264;51.296;-0.602;2023-02-16T14:33:46;101707.34;;;13.73;100.00
50356;BME280;36264;51.296;-0.602;2023-02-16T14:36:20;101712.53;;;13.74;100.00
50356;BME280;36264;51.296;-0.602;2023-02-16T14:38:47;101712.41;;;13.79;100.00
50356;BME280;36264;51.296;-0.602;2023-02-16T14:43:57;101719.97;;;13.88;100.00
50356;BME280;36264;51.296;-0.602;2023-02-16T14:57:14;101717.66;;;14.07;100.00
50356;BME280;36264;51.296;-0.602;2023-02-16T14:59:51;101714.00;;;14.13;100.00
50356;BME280;36264;51.296;-0.602;2023-02-16T15:02:38;101718.31;;;14.14;100.00
50356;BME280;36264;51.296;-0.602;2023-02-16T15:05:28;101728.03;;;14.10;100.00
50356;BME280;36264;51.296;-0.602;2023-02-16T15:10:27;101710.81;;;14.03;100.00
50356;BME280;36264;51.296;-0.602;2023-02-16T15:12:54;101709.88;;;14.06;100.00